sensor_id;sensor_type;location;lat;lon;timestamp;P1;durP1;ratioP1;P2;durP2;ratioP2
4603;SDS011;2314;48.272;11.562;2023-12-28T00:02:23;7.33;;;4.70;;
4603;SDS011;2314;48.272;11.562;2023-12-28T00:04:50;11.90;;;5.53;;
4603;SDS011;2314;48.272;11.562;2023-12-28T00:07:17;9.87;;;5.93;;
4603;SDS011;2314;48.272;11.562;2023-12-28T00:09:45;10.73;;;4.23;;
4603;SDS011;2314;48.272;11.562;2023-12-28T00:12:12;8.17;;;5.70;;
4603;SDS011;2314;48.272;11.562;2023-12-28T00:14:38;9.10;;;5.77;;
4603;SDS011;2314;48.272;11.562;2023-12-28T00:17:05;11.80;;;5.93;;
4603;SDS011;2314;48.272;11.562;2023-12-28T00:19:34;6.60;;;4.33;;
4603;SDS011;2314;48.272;11.562;2023-12-28T00:22:01;10.43;;;4.27;;
4603;SDS011;2314;48.272;11.562;2023-12-28T00:24:28;8.57;;;4.10;;
4603;SDS011;2314;48.272;11.562;2023-12-28T00:26:55;7.40;;;3.50;;
4603;SDS011;2314;48.272;11.562;2023-12-28T00:29:22;8.23;;;4.60;;
4603;SDS011;2314;48.272;11.562;2023-12-28T00:31:49;8.73;;;4.30;;
4603;SDS011;2314;48.272;11.562;2023-12-28T00:34:16;7.53;;;3.50;;
4603;SDS011;2314;48.272;11.562;2023-12-28T00:36:45;8.97;;;4.60;;
4603;SDS011;2314;48.272;11.562;2023-12-28T00:39:12;7.33;;;4.20;;
4603;SDS011;2314;48.272;11.562;2023-12-28T00:41:40;7.43;;;4.10;;
4603;SDS011;2314;48.272;11.562;2023-12-28T00:44:07;7.90;;;4.00;;
4603;SDS011;2314;48.272;11.562;2023-12-28T00:46:34;7.60;;;3.50;;
4603;SDS011;2314;48.272;11.562;2023-12-28T00:49:01;6.43;;;3.33;;
4603;SDS011;2314;48.272;11.562;2023-12-28T00:51:29;6.07;;;3.53;;
4603;SDS011;2314;48.272;11.562;2023-12-28T00:53:57;5.97;;;3.43;;
4603;SDS011;2314;48.272;11.562;2023-12-28T00:56:24;9.90;;;3.67;;
4603;SDS011;2314;48.272;11.562;2023-12-28T00:58:51;5.70;;;3.30;;
4603;SDS011;2314;48.272;11.562;2023-12-28T01:01:19;5.50;;;3.20;;
4603;SDS011;2314;48.272;11.562;2023-12-28T01:03:46;5.83;;;3.13;;
4603;SDS011;2314;48.272;11.562;2023-12-28T01:06:13;5.60;;;2.73;;
4603;SDS011;2314;48.272;11.562;2023-12-28T01:08:40;4.27;;;2.40;;
4603;SDS011;2314;48.272;11.562;2023-12-28T01:11:09;3.60;;;2.43;;
4603;SDS011;2314;48.272;11.562;2023-12-28T01:13:37;3.70;;;2.20;;
4603;SDS011;2314;48.272;11.562;2023-12-28T01:16:04;4.77;;;2.53;;
4603;SDS011;2314;48.272;11.562;2023-12-28T01:18:32;4.00;;;2.00;;
4603;SDS011;2314;48.272;11.562;2023-12-28T01:21:00;3.10;;;1.87;;
4603;SDS011;2314;48.272;11.562;2023-12-28T01:23:27;4.40;;;2.10;;
4603;SDS011;2314;48.272;11.562;2023-12-28T01:25:55;3.70;;;1.70;;
4603;SDS011;2314;48.272;11.562;2023-12-28T01:28:24;2.50;;;1.53;;
4603;SDS011;2314;48.272;11.562;2023-12-28T01:30:51;4.93;;;1.80;;
4603;SDS011;2314;48.272;11.562;2023-12-28T01:33:18;2.97;;;1.70;;
4603;SDS011;2314;48.272;11.562;2023-12-28T01:35:45;4.27;;;1.80;;
4603;SDS011;2314;48.272;11.562;2023-12-28T01:38:12;4.13;;;1.87;;
4603;SDS011;2314;48.272;11.562;2023-12-28T01:40:43;5.30;;;2.20;;
4603;SDS011;2314;48.272;11.562;2023-12-28T01:43:12;3.40;;;1.60;;
4603;SDS011;2314;48.272;11.562;2023-12-28T01:45:41;11.63;;;2.10;;
4603;SDS011;2314;48.272;11.562;2023-12-28T01:48:08;3.13;;;1.50;;
4603;SDS011;2314;48.272;11.562;2023-12-28T01:50:36;4.13;;;1.73;;
4603;SDS011;2314;48.272;11.562;2023-12-28T01:53:04;3.20;;;1.47;;
4603;SDS011;2314;48.272;11.562;2023-12-28T01:55:33;3.50;;;1.67;;
4603;SDS011;2314;48.272;11.562;2023-12-28T01:58:01;2.50;;;1.23;;
4603;SDS011;2314;48.272;11.562;2023-12-28T02:00:28;3.40;;;1.83;;
4603;SDS011;2314;48.272;11.562;2023-12-28T02:02:58;4.00;;;2.03;;
4603;SDS011;2314;48.272;11.562;2023-12-28T02:05:26;2.90;;;1.47;;
4603;SDS011;2314;48.272;11.562;2023-12-28T02:07:57;2.90;;;1.67;;
4603;SDS011;2314;48.272;11.562;2023-12-28T02:10:24;3.93;;;1.70;;
4603;SDS011;2314;48.272;11.562;2023-12-28T02:12:53;3.10;;;1.50;;
4603;SDS011;2314;48.272;11.562;2023-12-28T02:15:20;3.27;;;1.53;;
4603;SDS011;2314;48.272;11.562;2023-12-28T02:17:50;4.37;;;1.87;;
4603;SDS011;2314;48.272;11.562;2023-12-28T02:20:28;2.90;;;1.50;;
4603;SDS011;2314;48.272;11.562;2023-12-28T02:22:56;3.40;;;1.70;;
4603;SDS011;2314;48.272;11.562;2023-12-28T02:25:26;5.13;;;2.30;;
4603;SDS011;2314;48.272;11.562;2023-12-28T02:27:56;4.10;;;1.60;;
4603;SDS011;2314;48.272;11.562;2023-12-28T02:30:26;5.50;;;1.60;;
4603;SDS011;2314;48.272;11.562;2023-12-28T02:32:57;4.03;;;1.60;;
4603;SDS011;2314;48.272;11.562;2023-12-28T02:35:37;6.80;;;1.70;;
4603;SDS011;2314;48.272;11.562;2023-12-28T02:38:09;2.30;;;1.17;;
4603;SDS011;2314;48.272;11.562;2023-12-28T02:40:40;3.83;;;1.60;;
4603;SDS011;2314;48.272;11.562;2023-12-28T02:43:09;3.23;;;1.47;;
4603;SDS011;2314;48.272;11.562;2023-12-28T02:45:37;3.70;;;1.43;;
4603;SDS011;2314;48.272;11.562;2023-12-28T02:48:05;1.97;;;1.20;;
4603;SDS011;2314;48.272;11.562;2023-12-28T02:50:33;3.23;;;1.70;;
4603;SDS011;2314;48.272;11.562;2023-12-28T02:53:03;1.87;;;1.23;;
4603;SDS011;2314;48.272;11.562;2023-12-28T02:55:30;4.77;;;2.13;;
4603;SDS011;2314;48.272;11.562;2023-12-28T02:57:59;2.90;;;1.33;;
4603;SDS011;2314;48.272;11.562;2023-12-28T03:00:27;4.00;;;1.83;;
4603;SDS011;2314;48.272;11.562;2023-12-28T03:02:55;2.73;;;1.20;;
4603;SDS011;2314;48.272;11.562;2023-12-28T03:05:22;3.47;;;1.63;;
4603;SDS011;2314;48.272;11.562;2023-12-28T03:07:49;3.43;;;1.40;;
4603;SDS011;2314;48.272;11.562;2023-12-28T03:10:16;3.97;;;1.30;;
4603;SDS011;2314;48.272;11.562;2023-12-28T03:12:44;3.40;;;1.50;;
4603;SDS011;2314;48.272;11.562;2023-12-28T03:15:15;2.40;;;1.23;;
4603;SDS011;2314;48.272;11.562;2023-12-28T03:17:42;4.63;;;1.83;;
4603;SDS011;2314;48.272;11.562;2023-12-28T03:20:10;4.53;;;1.40;;
4603;SDS011;2314;48.272;11.562;2023-12-28T03:22:37;3.00;;;1.40;;
4603;SDS011;2314;48.272;11.562;2023-12-28T03:25:04;2.53;;;1.40;;
4603;SDS011;2314;48.272;11.562;2023-12-28T03:27:35;3.13;;;1.50;;
4603;SDS011;2314;48.272;11.562;2023-12-28T03:30:02;2.73;;;1.50;;
4603;SDS011;2314;48.272;11.562;2023-12-28T03:32:33;2.33;;;1.67;;
4603;SDS011;2314;48.272;11.562;2023-12-28T03:35:00;2.77;;;1.50;;
4603;SDS011;2314;48.272;11.562;2023-12-28T03:37:27;2.80;;;1.37;;
4603;SDS011;2314;48.272;11.562;2023-12-28T03:39:54;4.37;;;1.50;;
4603;SDS011;2314;48.272;11.562;2023-12-28T03:42:22;4.20;;;1.90;;
4603;SDS011;2314;48.272;11.562;2023-12-28T03:44:50;2.83;;;1.20;;
4603;SDS011;2314;48.272;11.562;2023-12-28T03:47:16;2.90;;;1.40;;
4603;SDS011;2314;48.272;11.562;2023-12-28T03:49:45;4.10;;;1.50;;
4603;SDS011;2314;48.272;11.562;2023-12-28T03:52:12;2.77;;;1.33;;
4603;SDS011;2314;48.272;11.562;2023-12-28T03:54:40;3.23;;;1.43;;
4603;SDS011;2314;48.272;11.562;2023-12-28T03:57:07;2.77;;;1.63;;
4603;SDS011;2314;48.272;11.562;2023-12-28T03:59:34;7.80;;;1.70;;
4603;SDS011;2314;48.272;11.562;2023-12-28T04:02:06;2.90;;;1.50;;
4603;SDS011;2314;48.272;11.562;2023-12-28T04:04:33;3.20;;;1.50;;
4603;SDS011;2314;48.272;11.562;2023-12-28T04:07:01;4.33;;;1.93;;
4603;SDS011;2314;48.272;11.562;2023-12-28T04:09:32;4.33;;;1.83;;
4603;SDS011;2314;48.272;11.562;2023-12-28T04:11:59;3.93;;;1.50;;
4603;SDS011;2314;48.272;11.562;2023-12-28T04:14:26;6.30;;;2.00;;
4603;SDS011;2314;48.272;11.562;2023-12-28T04:16:53;4.20;;;1.80;;
4603;SDS011;2314;48.272;11.562;2023-12-28T04:19:20;3.73;;;1.93;;
4603;SDS011;2314;48.272;11.562;2023-12-28T04:21:47;3.20;;;1.50;;
4603;SDS011;2314;48.272;11.562;2023-12-28T04:24:16;3.50;;;1.60;;
4603;SDS011;2314;48.272;11.562;2023-12-28T04:26:43;2.90;;;1.60;;
4603;SDS011;2314;48.272;11.562;2023-12-28T04:29:10;3.43;;;1.87;;
4603;SDS011;2314;48.272;11.562;2023-12-28T04:31:39;2.90;;;1.40;;
4603;SDS011;2314;48.272;11.562;2023-12-28T04:34:07;3.17;;;1.80;;
4603;SDS011;2314;48.272;11.562;2023-12-28T04:36:39;3.70;;;1.57;;
4603;SDS011;2314;48.272;11.562;2023-12-28T04:39:07;2.67;;;1.63;;
4603;SDS011;2314;48.272;11.562;2023-12-28T04:41:35;2.23;;;1.43;;
4603;SDS011;2314;48.272;11.562;2023-12-28T04:44:02;3.50;;;1.73;;
4603;SDS011;2314;48.272;11.562;2023-12-28T04:46:30;2.97;;;1.63;;
4603;SDS011;2314;48.272;11.562;2023-12-28T04:48:57;5.60;;;2.07;;
4603;SDS011;2314;48.272;11.562;2023-12-28T04:51:24;6.40;;;3.10;;
4603;SDS011;2314;48.272;11.562;2023-12-28T04:53:51;3.40;;;1.77;;
4603;SDS011;2314;48.272;11.562;2023-12-28T04:56:18;3.13;;;1.70;;
4603;SDS011;2314;48.272;11.562;2023-12-28T04:58:47;3.20;;;1.97;;
4603;SDS011;2314;48.272;11.562;2023-12-28T05:01:14;4.40;;;1.83;;
4603;SDS011;2314;48.272;11.562;2023-12-28T05:03:41;3.37;;;1.73;;
4603;SDS011;2314;48.272;11.562;2023-12-28T05:06:08;3.73;;;1.60;;
4603;SDS011;2314;48.272;11.562;2023-12-28T05:08:35;4.30;;;2.20;;
4603;SDS011;2314;48.272;11.562;2023-12-28T05:11:02;3.00;;;1.63;;
4603;SDS011;2314;48.272;11.562;2023-12-28T05:13:31;3.47;;;1.90;;
4603;SDS011;2314;48.272;11.562;2023-12-28T05:16:01;2.80;;;1.90;;
4603;SDS011;2314;48.272;11.562;2023-12-28T05:18:28;5.27;;;1.97;;
4603;SDS011;2314;48.272;11.562;2023-12-28T05:20:56;3.20;;;1.80;;
4603;SDS011;2314;48.272;11.562;2023-12-28T05:23:23;3.23;;;1.80;;
4603;SDS011;2314;48.272;11.562;2023-12-28T05:25:50;3.73;;;1.60;;
4603;SDS011;2314;48.272;11.562;2023-12-28T05:28:17;3.50;;;1.70;;
4603;SDS011;2314;48.272;11.562;2023-12-28T05:30:45;3.40;;;1.73;;
4603;SDS011;2314;48.272;11.562;2023-12-28T05:33:13;2.30;;;1.47;;
4603;SDS011;2314;48.272;11.562;2023-12-28T05:35:41;3.03;;;1.80;;
4603;SDS011;2314;48.272;11.562;2023-12-28T05:38:08;2.53;;;1.33;;
4603;SDS011;2314;48.272;11.562;2023-12-28T05:40:35;3.77;;;1.40;;
4603;SDS011;2314;48.272;11.562;2023-12-28T05:43:03;2.40;;;1.40;;
4603;SDS011;2314;48.272;11.562;2023-12-28T05:45:30;3.47;;;1.60;;
4603;SDS011;2314;48.272;11.562;2023-12-28T05:47:57;2.50;;;1.10;;
4603;SDS011;2314;48.272;11.562;2023-12-28T05:50:25;2.30;;;1.20;;
4603;SDS011;2314;48.272;11.562;2023-12-28T05:52:52;3.13;;;1.70;;
4603;SDS011;2314;48.272;11.562;2023-12-28T05:55:20;3.07;;;1.40;;
4603;SDS011;2314;48.272;11.562;2023-12-28T05:57:47;2.30;;;1.00;;
4603;SDS011;2314;48.272;11.562;2023-12-28T06:00:14;7.13;;;1.30;;
4603;SDS011;2314;48.272;11.562;2023-12-28T06:02:43;2.27;;;1.00;;
4603;SDS011;2314;48.272;11.562;2023-12-28T06:05:11;2.43;;;1.10;;
4603;SDS011;2314;48.272;11.562;2023-12-28T06:07:40;2.10;;;1.20;;
4603;SDS011;2314;48.272;11.562;2023-12-28T06:10:07;2.87;;;1.57;;
4603;SDS011;2314;48.272;11.562;2023-12-28T06:12:35;2.03;;;1.10;;
4603;SDS011;2314;48.272;11.562;2023-12-28T06:15:04;2.67;;;1.20;;
4603;SDS011;2314;48.272;11.562;2023-12-28T06:17:32;1.73;;;1.03;;
4603;SDS011;2314;48.272;11.562;2023-12-28T06:19:59;2.00;;;1.07;;
4603;SDS011;2314;48.272;11.562;2023-12-28T06:22:27;2.10;;;0.90;;
4603;SDS011;2314;48.272;11.562;2023-12-28T06:24:56;2.20;;;1.10;;
4603;SDS011;2314;48.272;11.562;2023-12-28T06:27:23;3.33;;;0.93;;
4603;SDS011;2314;48.272;11.562;2023-12-28T06:29:50;2.30;;;1.00;;
4603;SDS011;2314;48.272;11.562;2023-12-28T06:32:17;4.37;;;1.40;;
4603;SDS011;2314;48.272;11.562;2023-12-28T06:34:44;4.37;;;2.50;;
4603;SDS011;2314;48.272;11.562;2023-12-28T06:37:11;2.40;;;1.00;;
4603;SDS011;2314;48.272;11.562;2023-12-28T06:39:38;1.90;;;0.97;;
4603;SDS011;2314;48.272;11.562;2023-12-28T06:42:07;1.80;;;0.87;;
4603;SDS011;2314;48.272;11.562;2023-12-28T06:44:34;3.00;;;1.23;;
4603;SDS011;2314;48.272;11.562;2023-12-28T06:47:00;5.00;;;1.10;;
4603;SDS011;2314;48.272;11.562;2023-12-28T06:49:27;2.00;;;0.83;;
4603;SDS011;2314;48.272;11.562;2023-12-28T06:51:55;2.60;;;1.10;;
4603;SDS011;2314;48.272;11.562;2023-12-28T06:54:22;2.13;;;1.00;;
4603;SDS011;2314;48.272;11.562;2023-12-28T06:56:51;1.97;;;0.97;;
4603;SDS011;2314;48.272;11.562;2023-12-28T06:59:19;2.60;;;1.23;;
4603;SDS011;2314;48.272;11.562;2023-12-28T07:01:46;2.97;;;1.57;;
4603;SDS011;2314;48.272;11.562;2023-12-28T07:04:14;3.70;;;1.20;;
4603;SDS011;2314;48.272;11.562;2023-12-28T07:06:42;2.60;;;1.07;;
4603;SDS011;2314;48.272;11.562;2023-12-28T07:09:09;3.27;;;1.30;;
4603;SDS011;2314;48.272;11.562;2023-12-28T07:11:36;1.87;;;0.90;;
4603;SDS011;2314;48.272;11.562;2023-12-28T07:14:03;2.87;;;1.37;;
4603;SDS011;2314;48.272;11.562;2023-12-28T07:16:32;2.87;;;1.37;;
4603;SDS011;2314;48.272;11.562;2023-12-28T07:18:59;2.97;;;1.40;;
4603;SDS011;2314;48.272;11.562;2023-12-28T07:21:26;2.50;;;1.20;;
4603;SDS011;2314;48.272;11.562;2023-12-28T07:23:53;2.47;;;1.40;;
4603;SDS011;2314;48.272;11.562;2023-12-28T07:26:20;2.73;;;1.20;;
4603;SDS011;2314;48.272;11.562;2023-12-28T07:28:47;3.03;;;1.23;;
4603;SDS011;2314;48.272;11.562;2023-12-28T07:31:22;3.00;;;1.37;;
4603;SDS011;2314;48.272;11.562;2023-12-28T07:33:51;2.60;;;1.10;;
4603;SDS011;2314;48.272;11.562;2023-12-28T07:36:18;2.77;;;1.13;;
4603;SDS011;2314;48.272;11.562;2023-12-28T07:38:46;2.13;;;1.10;;
4603;SDS011;2314;48.272;11.562;2023-12-28T07:41:13;3.73;;;1.10;;
4603;SDS011;2314;48.272;11.562;2023-12-28T07:43:40;10.23;;;1.77;;
4603;SDS011;2314;48.272;11.562;2023-12-28T07:46:07;2.37;;;1.20;;
4603;SDS011;2314;48.272;11.562;2023-12-28T07:48:34;2.47;;;1.23;;
4603;SDS011;2314;48.272;11.562;2023-12-28T07:51:05;2.30;;;1.07;;
4603;SDS011;2314;48.272;11.562;2023-12-28T07:53:32;5.43;;;1.50;;
4603;SDS011;2314;48.272;11.562;2023-12-28T07:55:59;3.63;;;1.50;;
4603;SDS011;2314;48.272;11.562;2023-12-28T07:58:26;2.40;;;1.30;;
4603;SDS011;2314;48.272;11.562;2023-12-28T08:00:53;3.37;;;1.37;;
4603;SDS011;2314;48.272;11.562;2023-12-28T08:03:20;3.33;;;1.13;;
4603;SDS011;2314;48.272;11.562;2023-12-28T08:05:47;4.23;;;1.00;;
4603;SDS011;2314;48.272;11.562;2023-12-28T08:08:16;3.00;;;1.27;;
4603;SDS011;2314;48.272;11.562;2023-12-28T08:10:43;2.60;;;0.97;;
4603;SDS011;2314;48.272;11.562;2023-12-28T08:13:10;3.83;;;0.83;;
4603;SDS011;2314;48.272;11.562;2023-12-28T08:15:37;2.47;;;1.23;;
4603;SDS011;2314;48.272;11.562;2023-12-28T08:18:04;3.90;;;1.30;;
4603;SDS011;2314;48.272;11.562;2023-12-28T08:20:31;2.20;;;1.20;;
4603;SDS011;2314;48.272;11.562;2023-12-28T08:22:58;4.03;;;1.13;;
4603;SDS011;2314;48.272;11.562;2023-12-28T08:25:26;3.37;;;1.50;;
4603;SDS011;2314;48.272;11.562;2023-12-28T08:27:53;3.13;;;1.07;;
4603;SDS011;2314;48.272;11.562;2023-12-28T08:30:20;4.23;;;1.23;;
4603;SDS011;2314;48.272;11.562;2023-12-28T08:32:50;3.80;;;1.40;;
4603;SDS011;2314;48.272;11.562;2023-12-28T08:35:17;4.70;;;1.43;;
4603;SDS011;2314;48.272;11.562;2023-12-28T08:37:44;3.23;;;1.17;;
4603;SDS011;2314;48.272;11.562;2023-12-28T08:40:11;3.20;;;1.47;;
4603;SDS011;2314;48.272;11.562;2023-12-28T08:42:41;2.57;;;1.07;;
4603;SDS011;2314;48.272;11.562;2023-12-28T08:45:08;3.27;;;1.30;;
4603;SDS011;2314;48.272;11.562;2023-12-28T08:47:35;2.80;;;1.33;;
4603;SDS011;2314;48.272;11.562;2023-12-28T08:50:03;3.43;;;1.20;;
4603;SDS011;2314;48.272;11.562;2023-12-28T08:52:30;2.53;;;1.10;;
4603;SDS011;2314;48.272;11.562;2023-12-28T08:55:00;2.50;;;1.23;;
4603;SDS011;2314;48.272;11.562;2023-12-28T08:57:28;2.57;;;1.20;;
4603;SDS011;2314;48.272;11.562;2023-12-28T09:00:03;4.70;;;1.30;;
4603;SDS011;2314;48.272;11.562;2023-12-28T09:02:35;2.57;;;1.30;;
4603;SDS011;2314;48.272;11.562;2023-12-28T09:05:04;2.57;;;1.80;;
4603;SDS011;2314;48.272;11.562;2023-12-28T09:07:32;3.40;;;2.70;;
4603;SDS011;2314;48.272;11.562;2023-12-28T09:10:01;2.30;;;1.50;;
4603;SDS011;2314;48.272;11.562;2023-12-28T09:12:28;3.00;;;1.60;;
4603;SDS011;2314;48.272;11.562;2023-12-28T09:14:56;2.07;;;1.23;;
4603;SDS011;2314;48.272;11.562;2023-12-28T09:17:24;3.40;;;1.40;;
4603;SDS011;2314;48.272;11.562;2023-12-28T09:19:51;3.93;;;1.30;;
4603;SDS011;2314;48.272;11.562;2023-12-28T09:22:18;3.47;;;1.40;;
4603;SDS011;2314;48.272;11.562;2023-12-28T09:24:45;1.73;;;0.80;;
4603;SDS011;2314;48.272;11.562;2023-12-28T09:27:12;2.63;;;1.23;;
4603;SDS011;2314;48.272;11.562;2023-12-28T09:29:39;3.70;;;1.30;;
4603;SDS011;2314;48.272;11.562;2023-12-28T09:32:07;2.87;;;1.00;;
4603;SDS011;2314;48.272;11.562;2023-12-28T09:34:41;3.13;;;1.40;;
4603;SDS011;2314;48.272;11.562;2023-12-28T09:37:08;2.50;;;1.27;;
4603;SDS011;2314;48.272;11.562;2023-12-28T09:39:35;2.50;;;1.23;;
4603;SDS011;2314;48.272;11.562;2023-12-28T09:42:04;2.37;;;1.10;;
4603;SDS011;2314;48.272;11.562;2023-12-28T09:44:36;2.53;;;1.20;;
4603;SDS011;2314;48.272;11.562;2023-12-28T09:47:08;3.00;;;1.30;;
4603;SDS011;2314;48.272;11.562;2023-12-28T09:49:37;3.10;;;1.30;;
4603;SDS011;2314;48.272;11.562;2023-12-28T09:52:08;3.57;;;1.37;;
4603;SDS011;2314;48.272;11.562;2023-12-28T09:54:38;2.27;;;1.07;;
4603;SDS011;2314;48.272;11.562;2023-12-28T09:57:06;2.77;;;1.00;;
4603;SDS011;2314;48.272;11.562;2023-12-28T09:59:34;2.37;;;0.90;;
4603;SDS011;2314;48.272;11.562;2023-12-28T10:02:02;2.83;;;1.27;;
4603;SDS011;2314;48.272;11.562;2023-12-28T10:04:30;3.60;;;1.07;;
4603;SDS011;2314;48.272;11.562;2023-12-28T10:06:58;3.40;;;1.20;;
4603;SDS011;2314;48.272;11.562;2023-12-28T10:09:25;3.77;;;1.37;;
4603;SDS011;2314;48.272;11.562;2023-12-28T10:11:53;3.50;;;1.63;;
4603;SDS011;2314;48.272;11.562;2023-12-28T10:14:20;4.30;;;1.50;;
4603;SDS011;2314;48.272;11.562;2023-12-28T10:16:46;4.03;;;1.93;;
4603;SDS011;2314;48.272;11.562;2023-12-28T10:19:14;4.10;;;1.30;;
4603;SDS011;2314;48.272;11.562;2023-12-28T10:21:42;3.10;;;1.20;;
4603;SDS011;2314;48.272;11.562;2023-12-28T10:24:11;2.53;;;1.20;;
4603;SDS011;2314;48.272;11.562;2023-12-28T10:26:38;2.20;;;1.10;;
4603;SDS011;2314;48.272;11.562;2023-12-28T10:29:05;2.77;;;1.30;;
4603;SDS011;2314;48.272;11.562;2023-12-28T10:31:32;2.80;;;1.30;;
4603;SDS011;2314;48.272;11.562;2023-12-28T10:34:00;2.50;;;1.70;;
4603;SDS011;2314;48.272;11.562;2023-12-28T10:36:27;2.77;;;1.10;;
4603;SDS011;2314;48.272;11.562;2023-12-28T10:38:55;2.80;;;1.10;;
4603;SDS011;2314;48.272;11.562;2023-12-28T10:41:27;2.80;;;1.13;;
4603;SDS011;2314;48.272;11.562;2023-12-28T10:44:01;2.73;;;1.23;;
4603;SDS011;2314;48.272;11.562;2023-12-28T10:46:30;2.47;;;1.20;;
4603;SDS011;2314;48.272;11.562;2023-12-28T10:48:59;2.40;;;1.20;;
4603;SDS011;2314;48.272;11.562;2023-12-28T10:51:31;4.13;;;1.20;;
4603;SDS011;2314;48.272;11.562;2023-12-28T10:54:05;1.97;;;1.10;;
4603;SDS011;2314;48.272;11.562;2023-12-28T10:56:47;3.40;;;1.30;;
4603;SDS011;2314;48.272;11.562;2023-12-28T10:59:27;3.60;;;1.23;;
4603;SDS011;2314;48.272;11.562;2023-12-28T11:02:06;4.03;;;1.30;;
4603;SDS011;2314;48.272;11.562;2023-12-28T11:04:37;3.70;;;1.57;;
4603;SDS011;2314;48.272;11.562;2023-12-28T11:07:07;2.10;;;1.00;;
4603;SDS011;2314;48.272;11.562;2023-12-28T11:09:37;2.37;;;1.17;;
4603;SDS011;2314;48.272;11.562;2023-12-28T11:12:09;2.67;;;1.30;;
4603;SDS011;2314;48.272;11.562;2023-12-28T11:14:40;3.03;;;1.47;;
4603;SDS011;2314;48.272;11.562;2023-12-28T11:17:08;2.43;;;0.90;;
4603;SDS011;2314;48.272;11.562;2023-12-28T11:19:36;3.07;;;1.10;;
4603;SDS011;2314;48.272;11.562;2023-12-28T11:22:04;3.60;;;1.33;;
4603;SDS011;2314;48.272;11.562;2023-12-28T11:24:33;2.40;;;1.10;;
4603;SDS011;2314;48.272;11.562;2023-12-28T11:27:01;3.33;;;1.60;;
4603;SDS011;2314;48.272;11.562;2023-12-28T11:29:31;2.57;;;1.20;;
4603;SDS011;2314;48.272;11.562;2023-12-28T11:31:58;3.27;;;1.13;;
4603;SDS011;2314;48.272;11.562;2023-12-28T11:34:27;4.10;;;1.23;;
4603;SDS011;2314;48.272;11.562;2023-12-28T11:36:55;2.93;;;1.00;;
4603;SDS011;2314;48.272;11.562;2023-12-28T11:39:29;3.20;;;1.10;;
4603;SDS011;2314;48.272;11.562;2023-12-28T11:42:01;2.63;;;1.00;;
4603;SDS011;2314;48.272;11.562;2023-12-28T11:44:36;2.37;;;1.20;;
4603;SDS011;2314;48.272;11.562;2023-12-28T11:47:10;3.13;;;1.23;;
4603;SDS011;2314;48.272;11.562;2023-12-28T11:49:38;2.50;;;1.10;;
4603;SDS011;2314;48.272;11.562;2023-12-28T11:52:06;2.50;;;1.30;;
4603;SDS011;2314;48.272;11.562;2023-12-28T11:54:36;2.70;;;1.43;;
4603;SDS011;2314;48.272;11.562;2023-12-28T11:57:03;2.70;;;1.00;;
4603;SDS011;2314;48.272;11.562;2023-12-28T11:59:32;2.40;;;0.90;;
4603;SDS011;2314;48.272;11.562;2023-12-28T12:02:00;2.53;;;1.00;;
4603;SDS011;2314;48.272;11.562;2023-12-28T12:04:33;4.03;;;1.10;;
4603;SDS011;2314;48.272;11.562;2023-12-28T12:07:01;2.60;;;0.93;;
4603;SDS011;2314;48.272;11.562;2023-12-28T12:09:30;3.70;;;1.20;;
4603;SDS011;2314;48.272;11.562;2023-12-28T12:11:59;2.50;;;1.00;;
4603;SDS011;2314;48.272;11.562;2023-12-28T12:14:27;2.83;;;1.00;;
4603;SDS011;2314;48.272;11.562;2023-12-28T12:16:56;2.47;;;1.20;;
4603;SDS011;2314;48.272;11.562;2023-12-28T12:19:24;8.50;;;1.10;;
4603;SDS011;2314;48.272;11.562;2023-12-28T12:21:51;2.33;;;1.10;;
4603;SDS011;2314;48.272;11.562;2023-12-28T12:24:19;2.43;;;1.00;;
4603;SDS011;2314;48.272;11.562;2023-12-28T12:26:46;1.87;;;0.90;;
4603;SDS011;2314;48.272;11.562;2023-12-28T12:29:13;2.33;;;1.00;;
4603;SDS011;2314;48.272;11.562;2023-12-28T12:31:44;3.83;;;1.30;;
4603;SDS011;2314;48.272;11.562;2023-12-28T12:34:15;2.10;;;1.00;;
4603;SDS011;2314;48.272;11.562;2023-12-28T12:36:42;2.47;;;0.90;;
4603;SDS011;2314;48.272;11.562;2023-12-28T12:39:10;3.23;;;1.20;;
4603;SDS011;2314;48.272;11.562;2023-12-28T12:41:37;2.80;;;1.00;;
4603;SDS011;2314;48.272;11.562;2023-12-28T12:44:04;3.40;;;1.30;;
4603;SDS011;2314;48.272;11.562;2023-12-28T12:46:32;2.60;;;1.20;;
4603;SDS011;2314;48.272;11.562;2023-12-28T12:48:59;2.73;;;1.00;;
4603;SDS011;2314;48.272;11.562;2023-12-28T12:51:30;2.30;;;1.00;;
4603;SDS011;2314;48.272;11.562;2023-12-28T12:53:57;4.87;;;1.17;;
4603;SDS011;2314;48.272;11.562;2023-12-28T12:56:25;3.23;;;1.50;;
4603;SDS011;2314;48.272;11.562;2023-12-28T12:58:53;2.73;;;1.20;;
4603;SDS011;2314;48.272;11.562;2023-12-28T13:01:22;2.40;;;1.10;;
4603;SDS011;2314;48.272;11.562;2023-12-28T13:03:51;2.63;;;1.10;;
4603;SDS011;2314;48.272;11.562;2023-12-28T13:06:18;3.30;;;1.20;;
4603;SDS011;2314;48.272;11.562;2023-12-28T13:08:49;5.10;;;1.60;;
4603;SDS011;2314;48.272;11.562;2023-12-28T13:11:16;4.40;;;1.73;;
4603;SDS011;2314;48.272;11.562;2023-12-28T13:13:51;3.13;;;1.20;;
4603;SDS011;2314;48.272;11.562;2023-12-28T13:16:24;2.30;;;1.07;;
4603;SDS011;2314;48.272;11.562;2023-12-28T13:19:04;3.20;;;1.40;;
4603;SDS011;2314;48.272;11.562;2023-12-28T13:21:31;2.67;;;1.00;;
4603;SDS011;2314;48.272;11.562;2023-12-28T13:23:59;4.17;;;1.60;;
4603;SDS011;2314;48.272;11.562;2023-12-28T13:26:27;3.97;;;1.37;;
4603;SDS011;2314;48.272;11.562;2023-12-28T13:28:54;3.10;;;1.27;;
4603;SDS011;2314;48.272;11.562;2023-12-28T13:31:21;4.33;;;1.27;;
4603;SDS011;2314;48.272;11.562;2023-12-28T13:33:49;3.87;;;1.30;;
4603;SDS011;2314;48.272;11.562;2023-12-28T13:36:16;4.67;;;1.40;;
4603;SDS011;2314;48.272;11.562;2023-12-28T13:38:44;3.73;;;1.17;;
4603;SDS011;2314;48.272;11.562;2023-12-28T13:41:13;2.40;;;1.17;;
4603;SDS011;2314;48.272;11.562;2023-12-28T13:43:40;4.53;;;1.40;;
4603;SDS011;2314;48.272;11.562;2023-12-28T13:46:07;4.40;;;1.17;;
4603;SDS011;2314;48.272;11.562;2023-12-28T13:48:34;7.90;;;1.43;;
4603;SDS011;2314;48.272;11.562;2023-12-28T13:51:04;3.23;;;1.73;;
4603;SDS011;2314;48.272;11.562;2023-12-28T13:53:31;2.47;;;1.20;;
4603;SDS011;2314;48.272;11.562;2023-12-28T13:56:00;3.33;;;1.33;;
4603;SDS011;2314;48.272;11.562;2023-12-28T13:58:29;3.70;;;1.17;;
4603;SDS011;2314;48.272;11.562;2023-12-28T14:00:57;3.10;;;1.40;;
4603;SDS011;2314;48.272;11.562;2023-12-28T14:03:25;2.83;;;1.00;;
4603;SDS011;2314;48.272;11.562;2023-12-28T14:05:52;3.90;;;1.10;;
4603;SDS011;2314;48.272;11.562;2023-12-28T14:08:18;2.57;;;1.20;;
4603;SDS011;2314;48.272;11.562;2023-12-28T14:10:46;3.50;;;1.13;;
4603;SDS011;2314;48.272;11.562;2023-12-28T14:13:13;2.20;;;1.13;;
4603;SDS011;2314;48.272;11.562;2023-12-28T14:15:42;2.93;;;1.07;;
4603;SDS011;2314;48.272;11.562;2023-12-28T14:18:09;3.30;;;1.13;;
4603;SDS011;2314;48.272;11.562;2023-12-28T14:20:37;4.07;;;1.50;;
4603;SDS011;2314;48.272;11.562;2023-12-28T14:23:04;2.70;;;1.20;;
4603;SDS011;2314;48.272;11.562;2023-12-28T14:25:32;5.13;;;1.33;;
4603;SDS011;2314;48.272;11.562;2023-12-28T14:28:00;3.47;;;1.10;;
4603;SDS011;2314;48.272;11.562;2023-12-28T14:30:28;2.40;;;1.30;;
4603;SDS011;2314;48.272;11.562;2023-12-28T14:32:58;3.00;;;1.17;;
4603;SDS011;2314;48.272;11.562;2023-12-28T14:35:25;4.30;;;1.47;;
4603;SDS011;2314;48.272;11.562;2023-12-28T14:37:53;4.80;;;1.30;;
4603;SDS011;2314;48.272;11.562;2023-12-28T14:40:20;3.87;;;1.33;;
4603;SDS011;2314;48.272;11.562;2023-12-28T14:42:47;2.77;;;1.30;;
4603;SDS011;2314;48.272;11.562;2023-12-28T14:45:14;3.00;;;1.27;;
4603;SDS011;2314;48.272;11.562;2023-12-28T14:47:41;3.00;;;1.50;;
4603;SDS011;2314;48.272;11.562;2023-12-28T14:50:09;2.37;;;1.20;;
4603;SDS011;2314;48.272;11.562;2023-12-28T14:52:36;3.37;;;1.47;;
4603;SDS011;2314;48.272;11.562;2023-12-28T14:55:07;2.57;;;1.40;;
4603;SDS011;2314;48.272;11.562;2023-12-28T14:57:34;3.83;;;1.30;;
4603;SDS011;2314;48.272;11.562;2023-12-28T15:00:01;3.27;;;1.20;;
4603;SDS011;2314;48.272;11.562;2023-12-28T15:02:30;3.20;;;1.10;;
4603;SDS011;2314;48.272;11.562;2023-12-28T15:04:58;3.33;;;1.33;;
4603;SDS011;2314;48.272;11.562;2023-12-28T15:07:27;3.83;;;1.77;;